createdAt,value
2019-03-17T00:00:42.474Z,15.9
2019-03-17T00:01:43.781Z,15.9
2019-03-17T00:02:57.726Z,15.9
2019-03-17T00:03:58.988Z,15.6
2019-03-17T00:05:00.393Z,15.8
2019-03-17T00:06:01.778Z,15.9
2019-03-17T00:07:03.427Z,15.9
2019-03-17T00:08:05.883Z,15.9
2019-03-17T00:09:07.657Z,15.9
2019-03-17T00:10:09.999Z,15.8
2019-03-17T00:11:11.309Z,15.9
2019-03-17T00:12:12.624Z,15.9
2019-03-17T00:13:13.884Z,15.8
2019-03-17T00:14:18.497Z,15.9
2019-03-17T00:15:19.767Z,15.8
2019-03-17T00:16:23.445Z,15.9
2019-03-17T00:17:25.173Z,15.7
2019-03-17T00:18:26.628Z,15.5
2019-03-17T00:19:27.898Z,15.6
2019-03-17T00:20:29.151Z,15.6
2019-03-17T00:21:30.402Z,15.7
2019-03-17T00:22:32.054Z,15.7
2019-03-17T00:23:33.329Z,15.7
2019-03-17T00:24:34.617Z,15.8
2019-03-17T00:25:35.881Z,15.8
2019-03-17T00:26:37.147Z,15.8
2019-03-17T00:27:39.485Z,15.8
2019-03-17T00:28:43.246Z,15.7
2019-03-17T00:29:45.652Z,15.6
2019-03-17T00:30:47.202Z,15.6
2019-03-17T00:31:49.759Z,15.6
2019-03-17T00:32:52.289Z,15.6
2019-03-17T00:33:54.698Z,15.6
2019-03-17T00:34:56.557Z,15.7
2019-03-17T00:35:57.828Z,15.7
2019-03-17T00:36:59.082Z,15.7
2019-03-17T00:38:00.689Z,15.6
2019-03-17T00:39:01.968Z,15.7
2019-03-17T00:40:03.389Z,15.6
2019-03-17T00:41:04.649Z,15.6
2019-03-17T00:42:05.931Z,15.6
2019-03-17T00:43:07.223Z,15.6
2019-03-17T00:44:08.881Z,15.6
2019-03-17T00:45:12.607Z,15.7
2019-03-17T00:46:13.906Z,15.7
2019-03-17T00:47:17.671Z,15.6
2019-03-17T00:48:18.998Z,15.6
2019-03-17T00:49:20.244Z,15.6
2019-03-17T00:50:24.023Z,15.6
2019-03-17T00:51:25.289Z,15.6
2019-03-17T00:52:26.563Z,15.5
2019-03-17T00:53:30.012Z,15.6
2019-03-17T00:54:31.427Z,15.6
2019-03-17T00:55:32.697Z,15.6
2019-03-17T00:56:33.947Z,15.6
2019-03-17T00:57:35.204Z,15.5
2019-03-17T00:58:36.530Z,15.5
2019-03-17T00:59:37.803Z,15.5
2019-03-17T01:00:39.319Z,15.6
2019-03-17T01:01:40.557Z,15.5
2019-03-17T01:02:41.811Z,15.5
2019-03-17T01:03:43.124Z,15.5
2019-03-17T01:04:55.634Z,15.5
2019-03-17T01:05:57.485Z,15.5
2019-03-17T01:06:58.771Z,15.5
2019-03-17T01:08:00.075Z,15.5
2019-03-17T01:09:01.418Z,15.4
2019-03-17T01:10:05.104Z,15.4
2019-03-17T01:11:06.430Z,15.4
2019-03-17T01:12:07.738Z,15.4
2019-03-17T01:13:09.037Z,15.5
2019-03-17T01:14:10.339Z,15.4
2019-03-17T01:15:11.587Z,15.5
2019-03-17T01:16:12.872Z,15.5
2019-03-17T01:17:14.128Z,15.4
2019-03-17T01:18:15.404Z,15.4
2019-03-17T01:19:16.716Z,15.3
2019-03-17T01:20:18.320Z,15.4
2019-03-17T01:21:19.568Z,15.4
2019-03-17T01:22:20.830Z,15.5
2019-03-17T01:23:22.100Z,15.4
2019-03-17T01:24:23.638Z,15.5
2019-03-17T01:25:24.956Z,15.5
2019-03-17T01:26:26.196Z,15.5
2019-03-17T01:27:27.636Z,15.5
2019-03-17T01:28:28.892Z,15.4
2019-03-17T01:29:30.207Z,15.1
2019-03-17T01:30:31.474Z,15.2
2019-03-17T01:31:32.722Z,15.3
2019-03-17T01:32:33.986Z,15.2
2019-03-17T01:33:35.326Z,15.3
2019-03-17T01:34:36.720Z,15.2
2019-03-17T01:35:37.964Z,15.3
2019-03-17T01:36:39.210Z,15.3
2019-03-17T01:37:40.496Z,15.3
2019-03-17T01:38:42.970Z,15.3
2019-03-17T01:39:44.580Z,15.3
2019-03-17T01:40:45.857Z,15.3
2019-03-17T01:41:47.898Z,15.2
2019-03-17T01:42:49.157Z,15.2
2019-03-17T01:43:51.469Z,15.2
2019-03-17T01:44:52.762Z,15.3
2019-03-17T01:45:54.032Z,15.3
2019-03-17T01:46:55.618Z,15.2
2019-03-17T01:47:57.928Z,15.1
2019-03-17T01:48:59.234Z,15.1
2019-03-17T01:50:00.548Z,15.2
2019-03-17T01:51:01.793Z,15.1
2019-03-17T01:52:03.046Z,15
2019-03-17T01:53:04.320Z,15
2019-03-17T01:54:05.907Z,15.1
2019-03-17T01:55:07.266Z,15.1
2019-03-17T01:56:08.770Z,15.1
2019-03-17T01:57:10.020Z,15
2019-03-17T01:58:11.282Z,15
2019-03-17T01:59:12.569Z,14.9
2019-03-17T02:00:13.883Z,15
2019-03-17T02:01:15.178Z,15.1
2019-03-17T02:02:16.440Z,15.1
2019-03-17T02:03:17.740Z,15.1
2019-03-17T02:04:18.991Z,15.1
2019-03-17T02:05:22.181Z,15.1
2019-03-17T02:06:23.779Z,15.1
2019-03-17T02:07:25.066Z,15.1
2019-03-17T02:08:26.298Z,15.1
2019-03-17T02:09:28.746Z,15
2019-03-17T02:10:30.328Z,15
2019-03-17T02:11:31.918Z,15
2019-03-17T02:12:33.244Z,15
2019-03-17T02:13:34.800Z,15.1
2019-03-17T02:14:36.068Z,15.1
2019-03-17T02:15:37.344Z,15
2019-03-17T02:16:38.613Z,15
2019-03-17T02:17:39.974Z,15
2019-03-17T02:18:41.246Z,15
2019-03-17T02:19:42.528Z,15
2019-03-17T02:20:43.807Z,14.8
2019-03-17T02:21:45.086Z,14.9
2019-03-17T02:22:46.347Z,14.9
2019-03-17T02:23:47.591Z,15
2019-03-17T02:24:48.869Z,15
2019-03-17T02:25:50.924Z,15
2019-03-17T02:26:52.176Z,14.9
2019-03-17T02:27:53.445Z,15
2019-03-17T02:28:54.906Z,14.8
2019-03-17T02:29:56.149Z,14.9
2019-03-17T02:30:57.448Z,14.9
2019-03-17T02:31:58.726Z,14.9
2019-03-17T02:33:00.315Z,14.9
2019-03-17T02:34:01.631Z,14.9
2019-03-17T02:35:02.935Z,14.7
2019-03-17T02:36:05.546Z,14.8
2019-03-17T02:37:06.839Z,14.8
2019-03-17T02:38:08.128Z,14.9
2019-03-17T02:39:09.388Z,14.8
2019-03-17T02:40:10.654Z,14.8
2019-03-17T02:41:12.251Z,14.9
2019-03-17T02:42:13.517Z,14.9
2019-03-17T02:43:14.802Z,14.9
2019-03-17T02:44:16.104Z,14.9
2019-03-17T02:45:17.733Z,14.9
2019-03-17T02:46:19.046Z,14.9
2019-03-17T02:47:20.601Z,14.9
2019-03-17T02:48:21.866Z,14.9
2019-03-17T02:49:23.174Z,14.8
2019-03-17T02:50:24.568Z,14.9
2019-03-17T02:51:25.977Z,14.9
2019-03-17T02:52:27.221Z,14.9
2019-03-17T02:53:28.519Z,14.5
2019-03-17T02:54:29.792Z,14.7
2019-03-17T02:55:32.106Z,14.7
2019-03-17T02:56:33.455Z,14.7
2019-03-17T02:57:34.720Z,14.7
2019-03-17T02:58:36.345Z,14.7
2019-03-17T02:59:37.635Z,14.8
2019-03-17T03:00:38.929Z,14.9
2019-03-17T03:01:40.242Z,14.6
2019-03-17T03:02:41.500Z,14.7
2019-03-17T03:03:43.037Z,14.9
2019-03-17T03:04:44.303Z,14.9
2019-03-17T03:05:54.402Z,14.8
2019-03-17T03:06:56.665Z,14.8
2019-03-17T03:07:57.931Z,14.6
2019-03-17T03:08:59.204Z,14.7
2019-03-17T03:10:01.484Z,14.6
2019-03-17T03:11:02.736Z,14.7
2019-03-17T03:12:04.303Z,14.7
2019-03-17T03:13:05.669Z,14.8
2019-03-17T03:14:06.955Z,14.8
2019-03-17T03:15:08.220Z,14.8
2019-03-17T03:16:09.506Z,14.7
2019-03-17T03:17:10.846Z,14.7
2019-03-17T03:18:12.158Z,14.5
2019-03-17T03:19:13.432Z,14.6
2019-03-17T03:20:17.086Z,14.6
2019-03-17T03:21:18.384Z,14.6
2019-03-17T03:22:19.685Z,14.6
2019-03-17T03:23:20.961Z,14.7
2019-03-17T03:24:22.306Z,14.8
2019-03-17T03:25:23.562Z,14.8
2019-03-17T03:26:24.840Z,14.7
2019-03-17T03:27:26.162Z,14.7
2019-03-17T03:28:27.473Z,14.7
2019-03-17T03:29:28.746Z,14.6
2019-03-17T03:30:30.004Z,14.6
2019-03-17T03:31:31.350Z,14.7
2019-03-17T03:32:32.648Z,14.4
2019-03-17T03:33:35.155Z,14.2
2019-03-17T03:34:36.420Z,14.4
2019-03-17T03:35:37.716Z,14.4
2019-03-17T03:36:38.965Z,14.5
2019-03-17T03:37:40.248Z,14.6
2019-03-17T03:38:41.504Z,14.6
2019-03-17T03:39:42.814Z,14.7
2019-03-17T03:40:44.088Z,14.7
2019-03-17T03:41:45.344Z,14.7
2019-03-17T03:42:47.002Z,14.6
2019-03-17T03:43:48.248Z,14.5
2019-03-17T03:44:49.514Z,14.5
2019-03-17T03:45:50.778Z,14.4
2019-03-17T03:46:52.047Z,14.5
2019-03-17T03:47:53.340Z,14.5
2019-03-17T03:48:54.601Z,14.4
2019-03-17T03:49:57.251Z,14.5
2019-03-17T03:50:58.663Z,14.3
2019-03-17T03:52:01.189Z,14.3
2019-03-17T03:53:03.164Z,14.4
2019-03-17T03:54:04.495Z,14.1
2019-03-17T03:55:05.779Z,14.2
2019-03-17T03:56:07.051Z,14.3
2019-03-17T03:57:08.303Z,14.3
2019-03-17T03:58:09.664Z,14.4
2019-03-17T03:59:10.932Z,14.4
2019-03-17T04:00:12.204Z,14.4
2019-03-17T04:01:13.453Z,14.3
2019-03-17T04:02:17.345Z,14.3
2019-03-17T04:03:18.621Z,14.4
2019-03-17T04:04:19.884Z,14.4
2019-03-17T04:05:21.156Z,14.5
2019-03-17T04:06:26.627Z,14.4
2019-03-17T04:07:28.391Z,14.4
2019-03-17T04:08:29.680Z,14.3
2019-03-17T04:09:30.996Z,14.4
2019-03-17T04:10:32.277Z,14.1
2019-03-17T04:11:33.565Z,14.2
2019-03-17T04:12:35.178Z,14.2
2019-03-17T04:13:36.874Z,14.3
2019-03-17T04:14:38.167Z,14.2
2019-03-17T04:15:39.489Z,14.2
2019-03-17T04:16:40.740Z,14.1
2019-03-17T04:17:41.985Z,14.1
2019-03-17T04:18:43.261Z,14.1
2019-03-17T04:19:46.573Z,14.1
2019-03-17T04:20:47.827Z,14.1
2019-03-17T04:21:49.077Z,13.9
2019-03-17T04:22:50.365Z,13.8
2019-03-17T04:23:51.664Z,13.9
2019-03-17T04:24:53.230Z,13.9
2019-03-17T04:25:54.495Z,14.1
2019-03-17T04:26:55.786Z,14.1
2019-03-17T04:27:57.045Z,14.1
2019-03-17T04:28:58.670Z,13.9
2019-03-17T04:29:59.928Z,14
2019-03-17T04:31:01.215Z,14
2019-03-17T04:32:02.489Z,14
2019-03-17T04:33:03.793Z,14
2019-03-17T04:34:05.087Z,14.1
2019-03-17T04:35:06.389Z,14
2019-03-17T04:36:07.659Z,14
2019-03-17T04:37:08.923Z,13.9
2019-03-17T04:38:10.481Z,13.9
2019-03-17T04:39:11.837Z,13.8
2019-03-17T04:40:13.099Z,14
2019-03-17T04:41:14.377Z,14.1
2019-03-17T04:42:15.621Z,14.1
2019-03-17T04:43:17.016Z,14.1
2019-03-17T04:44:21.005Z,14.1
2019-03-17T04:45:22.614Z,14.1
2019-03-17T04:46:23.879Z,14.1
2019-03-17T04:47:25.145Z,14.1
2019-03-17T04:48:26.407Z,14
2019-03-17T04:49:27.685Z,14
2019-03-17T04:50:28.937Z,14
2019-03-17T04:51:30.529Z,14
2019-03-17T04:52:31.823Z,14.1
2019-03-17T04:53:33.083Z,14.1
2019-03-17T04:54:34.395Z,14
2019-03-17T04:55:35.642Z,14
2019-03-17T04:56:36.897Z,14
2019-03-17T04:57:38.155Z,14.1
2019-03-17T04:58:39.393Z,14.1
2019-03-17T04:59:40.705Z,14
2019-03-17T05:00:41.950Z,14
2019-03-17T05:01:43.193Z,14.1
2019-03-17T05:02:44.457Z,14
2019-03-17T05:03:46.008Z,14
2019-03-17T05:04:47.313Z,14
2019-03-17T05:05:48.577Z,14
2019-03-17T05:06:52.813Z,13.9
2019-03-17T05:07:54.301Z,13.7
2019-03-17T05:08:55.566Z,13.8
2019-03-17T05:09:56.847Z,14
2019-03-17T05:10:58.126Z,14.1
2019-03-17T05:11:59.375Z,14
2019-03-17T05:13:00.635Z,14
2019-03-17T05:14:01.889Z,14.1
2019-03-17T05:15:03.281Z,14.1
2019-03-17T05:16:04.540Z,14
2019-03-17T05:17:05.819Z,13.9
2019-03-17T05:18:07.073Z,13.9
2019-03-17T05:19:08.323Z,13.9
2019-03-17T05:20:09.639Z,13.8
2019-03-17T05:21:10.908Z,13.8
2019-03-17T05:22:12.189Z,13.9
2019-03-17T05:23:13.478Z,13.9
2019-03-17T05:24:16.833Z,13.9
2019-03-17T05:25:18.564Z,13.9
2019-03-17T05:26:19.831Z,13.9
2019-03-17T05:27:21.407Z,13.9
2019-03-17T05:28:23.237Z,13.9
2019-03-17T05:29:24.689Z,13.9
2019-03-17T05:30:26.036Z,13.9
2019-03-17T05:31:27.391Z,13.9
2019-03-17T05:32:30.942Z,13.9
2019-03-17T05:33:32.208Z,13.8
2019-03-17T05:34:33.452Z,13.9
2019-03-17T05:35:34.796Z,13.9
2019-03-17T05:36:36.041Z,13.8
2019-03-17T05:37:37.297Z,13.8
2019-03-17T05:38:38.584Z,13.9
2019-03-17T05:39:39.863Z,13.9
2019-03-17T05:40:41.525Z,13.8
2019-03-17T05:41:42.794Z,13.9
2019-03-17T05:42:44.028Z,13.9
2019-03-17T05:43:45.305Z,13.8
2019-03-17T05:44:46.769Z,13.8
2019-03-17T05:45:48.078Z,13.8
2019-03-17T05:46:49.334Z,13.8
2019-03-17T05:47:50.592Z,13.8
2019-03-17T05:48:51.840Z,13.8
2019-03-17T05:49:53.090Z,13.8
2019-03-17T05:50:54.367Z,13.9
2019-03-17T05:51:56.101Z,13.9
2019-03-17T05:52:57.350Z,13.9
2019-03-17T05:53:58.796Z,13.9
2019-03-17T05:55:00.070Z,14
2019-03-17T05:56:01.336Z,14
2019-03-17T05:57:02.590Z,14
2019-03-17T05:58:03.865Z,14
2019-03-17T05:59:05.116Z,13.9
2019-03-17T06:00:06.367Z,14
2019-03-17T06:01:07.908Z,14
2019-03-17T06:02:09.152Z,14
2019-03-17T06:03:10.431Z,14
2019-03-17T06:04:11.904Z,14
2019-03-17T06:05:13.160Z,14
2019-03-17T06:06:14.444Z,14
2019-03-17T06:07:18.796Z,14
2019-03-17T06:08:20.451Z,14
2019-03-17T06:09:21.804Z,13.9
2019-03-17T06:10:23.059Z,13.9
2019-03-17T06:11:24.342Z,13.9
2019-03-17T06:12:25.608Z,13.9
2019-03-17T06:13:28.270Z,13.9
2019-03-17T06:14:29.830Z,13.9
2019-03-17T06:15:31.416Z,13.9
2019-03-17T06:16:32.728Z,13.9
2019-03-17T06:17:34.027Z,13.9
2019-03-17T06:18:35.270Z,13.8
2019-03-17T06:19:36.516Z,13.9
2019-03-17T06:20:37.777Z,13.9
2019-03-17T06:21:39.098Z,13.9
2019-03-17T06:22:40.410Z,13.9
2019-03-17T06:23:41.681Z,14
2019-03-17T06:24:42.946Z,14
2019-03-17T06:25:44.210Z,14
2019-03-17T06:26:45.488Z,14.1
2019-03-17T06:27:46.752Z,14.2
2019-03-17T06:28:48.016Z,14.2
2019-03-17T06:29:49.307Z,14.3
2019-03-17T06:30:50.555Z,14.4
2019-03-17T06:31:51.955Z,14.6
2019-03-17T06:32:53.598Z,14.6
2019-03-17T06:33:54.864Z,14.6
2019-03-17T06:34:56.572Z,14.7
2019-03-17T06:35:57.866Z,14.7
2019-03-17T06:36:59.328Z,14.6
2019-03-17T06:38:00.836Z,14.6
2019-03-17T06:39:02.164Z,14.6
2019-03-17T06:40:03.424Z,14.4
2019-03-17T06:41:04.796Z,14.3
2019-03-17T06:42:06.266Z,14.3
2019-03-17T06:43:07.522Z,14.2
2019-03-17T06:44:08.793Z,14.2
2019-03-17T06:45:10.402Z,14.3
2019-03-17T06:46:11.684Z,14.2
2019-03-17T06:47:13.786Z,14.2
2019-03-17T06:48:15.028Z,14
2019-03-17T06:49:16.292Z,14.3
2019-03-17T06:50:18.587Z,14.2
2019-03-17T06:51:19.846Z,14.3
2019-03-17T06:52:21.130Z,14.3
2019-03-17T06:53:22.698Z,14.4
2019-03-17T06:54:23.945Z,14.4
2019-03-17T06:55:25.205Z,14.3
2019-03-17T06:56:26.494Z,14.3
2019-03-17T06:57:27.792Z,14.3
2019-03-17T06:58:29.044Z,14.3
2019-03-17T06:59:30.292Z,14.4
2019-03-17T07:00:31.542Z,14.4
2019-03-17T07:01:35.170Z,14.4
2019-03-17T07:02:37.680Z,14.4
2019-03-17T07:03:38.936Z,14.4
2019-03-17T07:04:40.189Z,14.5
2019-03-17T07:05:41.448Z,14.4
2019-03-17T07:06:42.725Z,14.5
2019-03-17T07:07:44.706Z,14.5
2019-03-17T07:08:46.138Z,14.5
2019-03-17T07:09:47.390Z,14.5
2019-03-17T07:10:48.640Z,14.5
2019-03-17T07:11:49.930Z,14.5
2019-03-17T07:12:51.194Z,14.4
2019-03-17T07:13:52.484Z,14.5
2019-03-17T07:15:08.170Z,14.5
2019-03-17T07:16:09.440Z,14.5
2019-03-17T07:17:10.726Z,14.5
2019-03-17T07:18:12.522Z,14.5
2019-03-17T07:19:13.796Z,14.6
2019-03-17T07:20:15.054Z,14.6
2019-03-17T07:21:16.324Z,14.5
2019-03-17T07:22:17.748Z,14.6
2019-03-17T07:23:19.054Z,14.6
2019-03-17T07:24:20.456Z,14.6
2019-03-17T07:25:21.731Z,14.6
2019-03-17T07:26:23.051Z,14.5
2019-03-17T07:27:24.320Z,14.6
2019-03-17T07:28:25.615Z,14.6
2019-03-17T07:29:26.886Z,14.6
2019-03-17T07:30:28.144Z,14.8
2019-03-17T07:31:29.407Z,15
2019-03-17T07:32:30.660Z,15.3
2019-03-17T07:33:31.993Z,15.4
2019-03-17T07:34:33.420Z,15.7
2019-03-17T07:35:34.665Z,16
2019-03-17T07:36:36.401Z,16.2
2019-03-17T07:37:37.708Z,16.1
2019-03-17T07:38:39.117Z,16.2
2019-03-17T07:39:40.361Z,16.4
2019-03-17T07:40:43.979Z,16.5
2019-03-17T07:41:45.315Z,16.4
2019-03-17T07:42:46.596Z,16.6
2019-03-17T07:43:47.915Z,16.6
2019-03-17T07:44:49.448Z,16.8
2019-03-17T07:45:50.715Z,17
2019-03-17T07:46:51.983Z,17.1
2019-03-17T07:47:53.243Z,17.1
2019-03-17T07:48:54.819Z,17.2
2019-03-17T07:49:56.099Z,17.1
2019-03-17T07:50:57.344Z,17.2
2019-03-17T07:51:58.619Z,17.3
2019-03-17T07:53:10.282Z,17.3
2019-03-17T07:54:11.603Z,17.4
2019-03-17T07:55:13.107Z,17.5
2019-03-17T07:56:14.401Z,17.6
2019-03-17T07:57:15.675Z,17.6
2019-03-17T07:58:16.941Z,17.6
2019-03-17T07:59:18.229Z,17.8
2019-03-17T08:00:31.137Z,17.8
2019-03-17T08:01:33.373Z,17.8
2019-03-17T08:02:34.672Z,17.9
2019-03-17T08:03:35.973Z,17.9
2019-03-17T08:04:42.209Z,18
2019-03-17T08:05:46.749Z,17.9
2019-03-17T08:06:48.025Z,17.9
2019-03-17T08:07:49.293Z,17.9
2019-03-17T08:08:50.668Z,17.9
2019-03-17T08:09:52.287Z,18
2019-03-17T08:10:53.547Z,18.1
2019-03-17T08:11:54.805Z,18.2
2019-03-17T08:12:56.081Z,18.2
2019-03-17T08:13:57.380Z,18.2
2019-03-17T08:14:59.887Z,18.2
2019-03-17T08:16:01.147Z,18.2
2019-03-17T08:17:02.414Z,18.3
2019-03-17T08:18:03.675Z,18.3
2019-03-17T08:19:06.328Z,18.4
2019-03-17T08:20:07.669Z,18.4
2019-03-17T08:21:08.926Z,18.4
2019-03-17T08:22:10.221Z,18.4
2019-03-17T08:23:14.784Z,18.4
2019-03-17T08:24:17.257Z,18.4
2019-03-17T08:25:18.575Z,18.4
2019-03-17T08:26:19.859Z,18.4
2019-03-17T08:27:21.231Z,18.4
2019-03-17T08:28:22.501Z,18.4
2019-03-17T08:29:23.773Z,18.5
2019-03-17T08:30:25.073Z,18.5
2019-03-17T08:31:26.335Z,18.6
2019-03-17T08:32:27.589Z,18.5
2019-03-17T08:33:28.847Z,18.6
2019-03-17T08:34:30.131Z,18.6
2019-03-17T08:35:31.472Z,18.6
2019-03-17T08:36:33.527Z,18.6
2019-03-17T08:37:37.831Z,18.6
2019-03-17T08:38:40.541Z,18.5
2019-03-17T08:39:44.045Z,18.5
2019-03-17T08:40:45.795Z,18.6
2019-03-17T08:41:47.261Z,18.6
2019-03-17T08:42:48.813Z,18.6
2019-03-17T08:43:57.275Z,18.5
2019-03-17T08:44:59.847Z,18.4
2019-03-17T08:46:01.533Z,18.5
2019-03-17T08:47:04.833Z,18.4
2019-03-17T08:48:08.291Z,18.4
2019-03-17T08:49:13.189Z,18.4
2019-03-17T08:50:14.665Z,18.4
2019-03-17T08:51:16.367Z,18.4
2019-03-17T08:52:17.737Z,18.4
2019-03-17T08:53:19.044Z,18.4
2019-03-17T08:54:20.299Z,18.4
2019-03-17T08:55:21.873Z,18.4
2019-03-17T08:56:25.601Z,18.4
2019-03-17T08:57:26.888Z,18.4
2019-03-17T08:58:28.182Z,18.4
2019-03-17T08:59:30.593Z,18.6
2019-03-17T09:00:34.197Z,18.7
2019-03-17T09:01:35.839Z,18.6
2019-03-17T09:02:37.211Z,18.6
2019-03-17T09:03:38.449Z,18.6
2019-03-17T09:04:46.865Z,18.6
2019-03-17T09:05:48.446Z,18.7
2019-03-17T09:06:49.836Z,18.7
2019-03-17T09:07:52.308Z,18.7
2019-03-17T09:08:53.820Z,18.6
2019-03-17T09:09:58.606Z,18.7
2019-03-17T09:11:00.183Z,18.7
2019-03-17T09:12:04.582Z,18.9
2019-03-17T09:13:08.628Z,18.9
2019-03-17T09:14:09.941Z,18.8
2019-03-17T09:15:12.436Z,18.8
2019-03-17T09:16:13.685Z,19
2019-03-17T09:17:15.015Z,18.9
2019-03-17T09:18:16.283Z,18.8
2019-03-17T09:19:18.836Z,18.9
2019-03-17T09:20:20.439Z,18.8
2019-03-17T09:21:25.545Z,18.9
2019-03-17T09:22:36.909Z,19
2019-03-17T09:23:38.681Z,18.9
2019-03-17T09:24:43.539Z,18.9
2019-03-17T09:25:44.825Z,18.9
2019-03-17T09:26:48.490Z,18.9
2019-03-17T09:27:49.804Z,18.9
2019-03-17T09:28:53.250Z,18.9
2019-03-17T09:29:55.488Z,18.9
2019-03-17T09:30:57.943Z,18.9
2019-03-17T09:31:59.415Z,19
2019-03-17T09:33:07.768Z,18.9
2019-03-17T09:34:09.086Z,18.9
2019-03-17T09:35:10.361Z,18.9
2019-03-17T09:36:11.673Z,19
2019-03-17T09:37:12.927Z,19
2019-03-17T09:38:14.265Z,19
2019-03-17T09:39:18.540Z,19
2019-03-17T09:40:22.088Z,19
2019-03-17T09:41:23.376Z,19
2019-03-17T09:42:26.682Z,19
2019-03-17T09:43:28.001Z,19
2019-03-17T09:44:29.273Z,19
2019-03-17T09:45:33.554Z,19
2019-03-17T09:46:34.822Z,19
2019-03-17T09:47:36.098Z,19
2019-03-17T09:48:37.382Z,19
2019-03-17T09:49:38.659Z,19
2019-03-17T09:50:39.918Z,19
2019-03-17T09:51:41.192Z,19
2019-03-17T09:52:42.804Z,19
2019-03-17T09:53:44.141Z,19
2019-03-17T09:54:45.414Z,19
2019-03-17T09:55:46.691Z,18.9
2019-03-17T09:56:47.959Z,18.8
2019-03-17T09:57:53.653Z,18.9
2019-03-17T09:58:57.598Z,19
2019-03-17T09:59:58.869Z,19
2019-03-17T10:01:00.817Z,18.9
2019-03-17T10:02:03.120Z,19
2019-03-17T10:03:05.712Z,19
2019-03-17T10:04:07.026Z,19
2019-03-17T10:05:08.293Z,18.9
2019-03-17T10:06:09.583Z,18.9
2019-03-17T10:07:11.020Z,19
2019-03-17T10:08:12.275Z,19
2019-03-17T10:09:19.318Z,19
2019-03-17T10:10:20.994Z,19
2019-03-17T10:11:24.444Z,19
2019-03-17T10:12:25.721Z,19
2019-03-17T10:13:27.008Z,18.9
2019-03-17T10:14:28.316Z,18.9
2019-03-17T10:15:29.619Z,19
2019-03-17T10:16:33.233Z,19
2019-03-17T10:17:35.193Z,19
2019-03-17T10:18:36.480Z,19
2019-03-17T10:19:37.850Z,19
2019-03-17T10:20:39.127Z,18.9
2019-03-17T10:21:40.622Z,19
2019-03-17T10:22:41.902Z,19
2019-03-17T10:23:43.192Z,19
2019-03-17T10:24:44.532Z,19
2019-03-17T10:25:45.808Z,18.9
2019-03-17T10:26:49.470Z,18.9
2019-03-17T10:27:55.208Z,18.8
2019-03-17T10:28:56.785Z,18.8
2019-03-17T10:30:02.676Z,18.8
2019-03-17T10:31:04.220Z,18.8
2019-03-17T10:32:05.531Z,18.9
2019-03-17T10:33:06.808Z,18.9
2019-03-17T10:34:08.099Z,18.8
2019-03-17T10:35:09.402Z,18.8
2019-03-17T10:36:10.665Z,18.8
2019-03-17T10:37:11.908Z,18.8
2019-03-17T10:38:13.171Z,18.8
2019-03-17T10:39:14.437Z,18.8
2019-03-17T10:40:15.757Z,18.8
2019-03-17T10:41:17.243Z,18.8
2019-03-17T10:42:18.825Z,18.8
2019-03-17T10:43:20.082Z,18.8
2019-03-17T10:44:21.402Z,18.7
2019-03-17T10:45:31.352Z,18.7
2019-03-17T10:46:32.914Z,18.7
2019-03-17T10:47:34.268Z,18.7
2019-03-17T10:48:35.533Z,18.7
2019-03-17T10:49:39.250Z,18.6
2019-03-17T10:50:49.241Z,18.7
2019-03-17T10:51:54.222Z,18.7
2019-03-17T10:52:55.514Z,18.7
2019-03-17T10:53:56.790Z,18.7
2019-03-17T10:54:58.053Z,18.7
2019-03-17T10:55:59.382Z,18.7
2019-03-17T10:57:01.976Z,18.6
2019-03-17T10:58:03.249Z,18.6
2019-03-17T10:59:05.824Z,18.6
2019-03-17T11:00:07.309Z,18.6
2019-03-17T11:01:08.728Z,18.6
2019-03-17T11:02:14.917Z,18.6
2019-03-17T11:03:16.201Z,18.6
2019-03-17T11:04:17.488Z,18.6
2019-03-17T11:05:18.760Z,18.6
2019-03-17T11:06:21.277Z,18.5
2019-03-17T11:07:22.560Z,18.5
2019-03-17T11:08:23.818Z,18.6
2019-03-17T11:09:25.685Z,18.6
2019-03-17T11:10:30.832Z,18.6
2019-03-17T11:11:32.156Z,18.6
2019-03-17T11:12:33.420Z,18.7
2019-03-17T11:13:39.539Z,18.7
2019-03-17T11:14:43.678Z,18.6
2019-03-17T11:15:44.943Z,18.6
2019-03-17T11:16:46.227Z,18.6
2019-03-17T11:17:47.492Z,18.6
2019-03-17T11:18:48.822Z,18.5
2019-03-17T11:19:52.264Z,18.5
2019-03-17T11:20:53.538Z,18.5
2019-03-17T11:21:54.849Z,18.5
2019-03-17T11:22:56.124Z,18.5
2019-03-17T11:23:57.730Z,18.5
2019-03-17T11:24:59.254Z,18.5
2019-03-17T11:26:00.544Z,18.4
2019-03-17T11:27:03.382Z,18.5
2019-03-17T11:28:04.668Z,18.5
2019-03-17T11:29:05.933Z,18.4
2019-03-17T11:30:08.486Z,18.4
2019-03-17T11:31:10.358Z,18.4
2019-03-17T11:32:13.240Z,18.5
2019-03-17T11:33:14.841Z,18.4
2019-03-17T11:34:18.392Z,18.4
2019-03-17T11:35:19.882Z,18.4
2019-03-17T11:36:21.356Z,18.4
2019-03-17T11:37:23.678Z,18.4
2019-03-17T11:38:25.094Z,18.4
2019-03-17T11:39:37.068Z,18.4
2019-03-17T11:40:39.261Z,18.4
2019-03-17T11:41:41.538Z,18.4
2019-03-17T11:42:43.500Z,18.5
2019-03-17T11:43:44.881Z,18.5
2019-03-17T11:44:46.146Z,18.5
2019-03-17T11:45:49.769Z,18.4
2019-03-17T11:46:54.682Z,18.4
2019-03-17T11:47:55.984Z,18.4
2019-03-17T11:48:57.304Z,18.4
2019-03-17T11:49:59.792Z,18.4
2019-03-17T11:51:02.302Z,18.5
2019-03-17T11:52:06.743Z,18.5
2019-03-17T11:53:08.358Z,18.5
2019-03-17T11:54:09.789Z,18.5
2019-03-17T11:55:11.076Z,18.5
2019-03-17T11:56:12.329Z,18.5
2019-03-17T11:57:13.806Z,18.6
2019-03-17T11:58:16.162Z,18.5
2019-03-17T11:59:17.849Z,18.6
2019-03-17T12:00:19.130Z,18.5
2019-03-17T12:01:20.707Z,18.5
2019-03-17T12:02:32.282Z,18.5
2019-03-17T12:03:33.609Z,18.5
2019-03-17T12:04:34.897Z,18.5
2019-03-17T12:05:36.143Z,18.5
2019-03-17T12:06:37.460Z,18.5
2019-03-17T12:07:38.720Z,18.5
2019-03-17T12:08:40.898Z,18.5
2019-03-17T12:09:49.866Z,18.5
2019-03-17T12:10:51.700Z,18.5
2019-03-17T12:11:52.986Z,18.5
2019-03-17T12:12:54.260Z,18.5
2019-03-17T12:13:55.633Z,18.5
2019-03-17T12:14:56.906Z,18.5
2019-03-17T12:16:00.626Z,18.6
2019-03-17T12:17:01.922Z,18.5
2019-03-17T12:18:03.244Z,18.5
2019-03-17T12:19:05.753Z,18.5
2019-03-17T12:20:10.215Z,18.6
2019-03-17T12:21:12.757Z,18.6
2019-03-17T12:22:14.040Z,18.5
2019-03-17T12:23:15.545Z,18.5
2019-03-17T12:24:19.500Z,18.5
2019-03-17T12:25:20.759Z,18.5
2019-03-17T12:26:22.045Z,18.6
2019-03-17T12:27:23.801Z,18.6
2019-03-17T12:28:25.072Z,18.6
2019-03-17T12:29:26.597Z,18.6
2019-03-17T12:30:32.651Z,18.6
2019-03-17T12:31:34.185Z,18.6
2019-03-17T12:32:35.457Z,18.6
2019-03-17T12:33:36.721Z,18.6
2019-03-17T12:34:39.108Z,18.6
2019-03-17T12:35:40.357Z,18.6
2019-03-17T12:36:41.621Z,18.6
2019-03-17T12:37:43.894Z,18.6
2019-03-17T12:38:45.156Z,18.7
2019-03-17T12:39:47.577Z,18.6
2019-03-17T12:40:50.918Z,18.6
2019-03-17T12:41:52.307Z,18.6
2019-03-17T12:42:53.907Z,18.6
2019-03-17T12:43:55.177Z,18.6
2019-03-17T12:44:56.505Z,18.7
2019-03-17T12:45:57.765Z,18.7
2019-03-17T12:46:59.338Z,18.7
2019-03-17T12:48:00.608Z,18.6
2019-03-17T12:49:01.889Z,18.6
2019-03-17T12:50:03.182Z,18.6
2019-03-17T12:51:04.447Z,18.6
2019-03-17T12:52:05.861Z,18.6
2019-03-17T12:53:07.947Z,18.6
2019-03-17T12:54:09.777Z,18.6
2019-03-17T12:55:11.116Z,18.6
2019-03-17T12:56:12.407Z,18.6
2019-03-17T12:57:13.704Z,18.6
2019-03-17T12:58:15.298Z,18.6
2019-03-17T12:59:16.781Z,18.6
2019-03-17T13:00:18.136Z,18.5
2019-03-17T13:01:19.691Z,18.6
2019-03-17T13:02:21.233Z,18.5
2019-03-17T13:03:22.522Z,18.6
2019-03-17T13:04:23.793Z,18.6
2019-03-17T13:05:25.086Z,18.6
2019-03-17T13:06:28.904Z,18.5
2019-03-17T13:07:30.407Z,18.5
2019-03-17T13:08:31.693Z,18.5
2019-03-17T13:09:33.093Z,18.4
2019-03-17T13:10:34.409Z,18.4
2019-03-17T13:11:36.062Z,18.5
2019-03-17T13:12:37.566Z,18.5
2019-03-17T13:13:38.829Z,18.4
2019-03-17T13:14:40.678Z,18.4
2019-03-17T13:15:42.769Z,18.4
2019-03-17T13:16:44.264Z,18.4
2019-03-17T13:17:46.828Z,18.4
2019-03-17T13:18:49.309Z,18.4
2019-03-17T13:19:51.609Z,18.4
2019-03-17T13:20:52.909Z,18.4
2019-03-17T13:21:56.563Z,18.5
2019-03-17T13:23:00.854Z,18.4
2019-03-17T13:24:02.157Z,18.5
2019-03-17T13:25:03.424Z,18.5
2019-03-17T13:26:10.130Z,18.5
2019-03-17T13:27:11.665Z,18.5
2019-03-17T13:28:14.748Z,18.5
2019-03-17T13:29:16.377Z,18.4
2019-03-17T13:30:17.647Z,18.5
2019-03-17T13:31:20.500Z,18.5
2019-03-17T13:32:22.481Z,18.5
2019-03-17T13:33:25.328Z,18.6
2019-03-17T13:34:26.937Z,18.6
2019-03-17T13:35:28.215Z,18.6
2019-03-17T13:36:29.530Z,18.5
2019-03-17T13:37:55.353Z,18.5
2019-03-17T13:38:57.823Z,18.5
2019-03-17T13:39:59.144Z,18.5
2019-03-17T13:41:00.409Z,18.5
2019-03-17T13:42:02.343Z,18.5
2019-03-17T13:43:03.597Z,18.5
2019-03-17T13:44:04.877Z,18.5
2019-03-17T13:45:06.164Z,18.5
2019-03-17T13:46:07.686Z,18.5
2019-03-17T13:47:09.301Z,18.5
2019-03-17T13:48:10.635Z,18.5
2019-03-17T13:49:12.335Z,18.5
2019-03-17T13:50:14.625Z,18.5
2019-03-17T13:51:15.882Z,18.5